createdAt,value
2019-01-24T00:02:07.257Z,28.53
2019-01-24T00:04:35.814Z,30.10
2019-01-24T00:07:04.385Z,30.50
2019-01-24T00:09:32.954Z,29.30
2019-01-24T00:12:01.552Z,27.63
2019-01-24T00:14:30.149Z,27.80
2019-01-24T00:16:58.790Z,28.43
2019-01-24T00:19:27.358Z,26.87
2019-01-24T00:21:55.888Z,28.43
2019-01-24T00:24:24.474Z,28.97
2019-01-24T00:26:53.013Z,27.47
2019-01-24T00:29:21.563Z,27.10
2019-01-24T00:31:50.146Z,27.13
2019-01-24T00:34:23.247Z,27.60
2019-01-24T00:36:48.986Z,28.00
2019-01-24T00:39:17.554Z,28.30
2019-01-24T00:41:46.109Z,26.47
2019-01-24T00:44:14.670Z,28.77
2019-01-24T00:46:43.306Z,28.93
2019-01-24T00:49:11.858Z,28.47
2019-01-24T00:51:40.426Z,27.77
2019-01-24T00:54:08.985Z,28.93
2019-01-24T00:56:37.534Z,29.13
2019-01-24T00:59:06.105Z,29.63
2019-01-24T01:01:34.719Z,29.50
2019-01-24T01:04:03.287Z,29.50
2019-01-24T01:06:31.850Z,29.37
2019-01-24T01:09:00.434Z,29.47
2019-01-24T01:11:29.023Z,27.20
2019-01-24T01:13:57.573Z,29.53
2019-01-24T01:16:26.052Z,29.97
2019-01-24T01:18:54.639Z,28.57
2019-01-24T01:21:23.187Z,29.03
2019-01-24T01:23:52.245Z,27.57
2019-01-24T01:26:21.247Z,29.10
2019-01-24T01:28:50.235Z,30.27
2019-01-24T01:31:18.704Z,29.30
2019-01-24T01:33:47.394Z,28.20
2019-01-24T01:36:15.947Z,29.83
2019-01-24T01:38:44.497Z,29.47
2019-01-24T01:41:13.086Z,29.97
2019-01-24T01:43:41.627Z,28.77
2019-01-24T01:46:10.179Z,28.40
2019-01-24T01:48:38.934Z,31.07
2019-01-24T01:51:07.490Z,28.53
2019-01-24T01:53:36.120Z,29.93
2019-01-24T01:56:04.697Z,30.33
2019-01-24T01:58:33.256Z,30.03
2019-01-24T02:01:01.802Z,31.40
2019-01-24T02:03:30.386Z,31.33
2019-01-24T02:05:58.923Z,31.37
2019-01-24T02:08:27.462Z,29.80
2019-01-24T02:10:56.030Z,29.73
2019-01-24T02:13:24.509Z,29.60
2019-01-24T02:15:53.062Z,28.83
2019-01-24T02:18:21.634Z,30.40
2019-01-24T02:20:50.198Z,29.73
2019-01-24T02:23:18.754Z,29.70
2019-01-24T02:25:47.318Z,30.80
2019-01-24T02:28:15.870Z,29.37
2019-01-24T02:30:44.433Z,31.30
2019-01-24T02:33:12.918Z,29.60
2019-01-24T02:35:41.398Z,31.03
2019-01-24T02:38:09.966Z,29.30
2019-01-24T02:40:38.546Z,27.97
2019-01-24T02:43:07.103Z,27.93
2019-01-24T02:45:35.654Z,30.83
2019-01-24T02:48:04.234Z,30.50
2019-01-24T02:50:33.117Z,29.90
2019-01-24T02:53:01.669Z,29.70
2019-01-24T02:55:31.725Z,31.43
2019-01-24T02:58:00.288Z,31.57
2019-01-24T03:00:28.828Z,31.33
2019-01-24T03:02:57.409Z,30.10
2019-01-24T03:05:25.971Z,29.97
2019-01-24T03:07:54.518Z,30.90
2019-01-24T03:10:23.093Z,30.80
2019-01-24T03:12:51.674Z,30.90
2019-01-24T03:15:20.714Z,31.33
2019-01-24T03:17:49.314Z,29.90
2019-01-24T03:20:17.872Z,31.57
2019-01-24T03:22:46.421Z,29.90
2019-01-24T03:25:15.632Z,31.90
2019-01-24T03:27:44.682Z,30.70
2019-01-24T03:30:15.831Z,32.27
2019-01-24T03:32:44.915Z,31.67
2019-01-24T03:35:19.810Z,29.83
2019-01-24T03:37:48.895Z,29.80
2019-01-24T03:40:17.947Z,31.63
2019-01-24T03:42:47.003Z,30.47
2019-01-24T03:45:16.519Z,31.07
2019-01-24T03:47:45.516Z,32.27
2019-01-24T03:50:16.294Z,33.13
2019-01-24T03:52:44.931Z,34.47
2019-01-24T03:55:13.858Z,33.70
2019-01-24T03:57:42.406Z,32.57
2019-01-24T04:00:14.846Z,34.07
2019-01-24T04:02:43.405Z,33.07
2019-01-24T04:05:12.262Z,33.77
2019-01-24T04:07:40.819Z,32.50
2019-01-24T04:10:10.524Z,33.40
2019-01-24T04:12:39.082Z,33.80
2019-01-24T04:15:08.467Z,32.30
2019-01-24T04:17:37.001Z,31.83
2019-01-24T04:20:06.098Z,34.13
2019-01-24T04:22:34.670Z,32.70
2019-01-24T04:25:03.208Z,32.60
2019-01-24T04:27:31.767Z,32.77
2019-01-24T04:30:00.379Z,31.67
2019-01-24T04:32:29.075Z,34.23
2019-01-24T04:34:57.626Z,32.87
2019-01-24T04:37:26.202Z,34.13
2019-01-24T04:39:54.770Z,33.83
2019-01-24T04:42:23.306Z,35.10
2019-01-24T04:44:51.890Z,35.33
2019-01-24T04:47:20.433Z,32.83
2019-01-24T04:49:48.987Z,33.87
2019-01-24T04:52:17.554Z,33.73
2019-01-24T04:54:47.709Z,34.17
2019-01-24T04:57:16.246Z,33.93
2019-01-24T04:59:44.907Z,33.87
2019-01-24T05:02:13.456Z,33.80
2019-01-24T05:04:41.998Z,32.17
2019-01-24T05:07:10.584Z,32.70
2019-01-24T05:09:39.142Z,34.73
2019-01-24T05:12:07.722Z,34.63
2019-01-24T05:14:36.320Z,34.27
2019-01-24T05:17:04.865Z,35.30
2019-01-24T05:19:33.424Z,33.17
2019-01-24T05:22:02.000Z,33.10
2019-01-24T05:24:30.557Z,35.17
2019-01-24T05:26:59.159Z,33.77
2019-01-24T05:29:27.847Z,34.97
2019-01-24T05:31:56.393Z,35.43
2019-01-24T05:34:24.938Z,35.37
2019-01-24T05:36:53.551Z,35.23
2019-01-24T05:39:22.129Z,36.00
2019-01-24T05:41:50.674Z,35.90
2019-01-24T05:44:19.322Z,35.97
2019-01-24T05:46:47.874Z,34.27
2019-01-24T05:49:16.422Z,35.77
2019-01-24T05:51:44.988Z,35.20
2019-01-24T05:54:13.454Z,35.80
2019-01-24T05:56:42.010Z,36.27
2019-01-24T05:59:10.580Z,35.47
2019-01-24T06:01:39.427Z,35.43
2019-01-24T06:04:08.021Z,36.23
2019-01-24T06:06:36.574Z,35.47
2019-01-24T06:09:06.559Z,35.23
2019-01-24T06:11:35.161Z,34.97
2019-01-24T06:14:03.755Z,36.03
2019-01-24T06:16:32.301Z,34.83
2019-01-24T06:19:00.859Z,35.30
2019-01-24T06:21:29.531Z,35.33
2019-01-24T06:23:58.089Z,35.80
2019-01-24T06:26:26.641Z,36.17
2019-01-24T06:28:55.218Z,35.03
2019-01-24T06:31:23.779Z,35.90
2019-01-24T06:33:52.274Z,37.83
2019-01-24T06:36:20.843Z,38.00
2019-01-24T06:38:49.432Z,36.07
2019-01-24T06:41:17.913Z,34.40
2019-01-24T06:43:46.498Z,35.20
2019-01-24T06:46:15.063Z,36.23
2019-01-24T06:48:43.623Z,36.23
2019-01-24T06:51:12.206Z,35.87
2019-01-24T06:53:40.758Z,34.50
2019-01-24T06:56:09.306Z,34.80
2019-01-24T06:58:37.879Z,34.17
2019-01-24T07:01:06.428Z,35.20
2019-01-24T07:03:34.981Z,36.53
2019-01-24T07:06:03.561Z,37.90
2019-01-24T07:08:32.054Z,37.67
2019-01-24T07:11:00.658Z,36.87
2019-01-24T07:13:29.226Z,35.70
2019-01-24T07:15:57.835Z,35.97
2019-01-24T07:18:26.379Z,35.40
2019-01-24T07:20:54.953Z,34.60
2019-01-24T07:23:23.520Z,35.73
2019-01-24T07:25:52.079Z,35.83
2019-01-24T07:28:20.672Z,35.03
2019-01-24T07:30:49.210Z,35.13
2019-01-24T07:33:17.762Z,34.80
2019-01-24T07:35:46.342Z,36.63
2019-01-24T07:38:14.907Z,36.57
2019-01-24T07:40:43.468Z,36.97
2019-01-24T07:43:12.026Z,36.87
2019-01-24T07:45:41.042Z,35.33
2019-01-24T07:48:09.596Z,36.73
2019-01-24T07:50:38.169Z,38.30
2019-01-24T07:53:07.014Z,39.33
2019-01-24T07:55:35.662Z,38.97
2019-01-24T07:58:04.445Z,38.40
2019-01-24T08:00:33.001Z,39.47
2019-01-24T08:03:01.555Z,37.43
2019-01-24T08:05:30.205Z,38.20
2019-01-24T08:07:58.750Z,38.07
2019-01-24T08:10:27.342Z,38.03
2019-01-24T08:12:55.845Z,37.30
2019-01-24T08:15:24.414Z,36.27
2019-01-24T08:17:53.028Z,37.17
2019-01-24T08:20:22.491Z,35.97
2019-01-24T08:22:51.026Z,37.17
2019-01-24T08:25:19.566Z,36.97
2019-01-24T08:27:48.139Z,34.10
2019-01-24T08:30:23.812Z,34.40
2019-01-24T08:32:52.375Z,34.73
2019-01-24T08:35:20.937Z,35.73
2019-01-24T08:37:49.484Z,34.50
2019-01-24T08:40:18.271Z,34.17
2019-01-24T08:42:46.812Z,34.60
2019-01-24T08:45:15.378Z,34.10
2019-01-24T08:47:43.929Z,34.30
2019-01-24T08:50:13.502Z,32.80
2019-01-24T08:52:42.052Z,32.33
2019-01-24T08:55:12.495Z,31.33
2019-01-24T08:57:41.042Z,31.47
2019-01-24T09:00:10.915Z,33.37
2019-01-24T09:02:39.487Z,32.70
2019-01-24T09:05:08.054Z,32.90
2019-01-24T09:07:36.627Z,32.73
2019-01-24T09:10:05.321Z,32.50
2019-01-24T09:12:33.926Z,32.00
2019-01-24T09:15:02.480Z,31.87
2019-01-24T09:17:32.685Z,30.87
2019-01-24T09:20:02.796Z,32.43
2019-01-24T09:22:31.442Z,32.40
2019-01-24T09:25:00.026Z,30.33
2019-01-24T09:27:28.574Z,32.83
2019-01-24T09:29:57.130Z,34.00
2019-01-24T09:32:25.733Z,33.97
2019-01-24T09:34:54.270Z,32.93
2019-01-24T09:37:22.742Z,31.90
2019-01-24T09:39:51.455Z,33.83
2019-01-24T09:42:20.003Z,33.07
2019-01-24T09:44:48.567Z,33.33
2019-01-24T09:47:17.135Z,34.87
2019-01-24T09:49:45.685Z,34.37
2019-01-24T09:52:14.254Z,34.17
2019-01-24T09:54:42.818Z,33.67
2019-01-24T09:57:11.368Z,33.53
2019-01-24T09:59:39.927Z,34.43
2019-01-24T10:02:08.510Z,33.33
2019-01-24T10:04:37.066Z,33.87
2019-01-24T10:07:05.627Z,35.50
2019-01-24T10:09:34.114Z,34.13
2019-01-24T10:12:04.127Z,34.13
2019-01-24T10:14:33.909Z,34.80
2019-01-24T10:17:02.474Z,35.17
2019-01-24T10:19:31.030Z,34.87
2019-01-24T10:21:59.580Z,34.93
2019-01-24T10:24:28.074Z,33.60
2019-01-24T10:26:56.663Z,34.63
2019-01-24T10:29:25.219Z,34.53
2019-01-24T10:31:53.794Z,35.17
2019-01-24T10:34:22.370Z,34.00
2019-01-24T10:36:50.923Z,34.30
2019-01-24T10:39:19.500Z,34.43
2019-01-24T10:41:48.069Z,36.67
2019-01-24T10:44:16.539Z,35.03
2019-01-24T10:46:45.090Z,33.37
2019-01-24T10:49:13.667Z,33.97
2019-01-24T10:51:42.207Z,34.90
2019-01-24T10:54:10.750Z,35.10
2019-01-24T10:56:39.338Z,35.13
2019-01-24T10:59:07.896Z,34.17
2019-01-24T11:01:36.447Z,34.77
2019-01-24T11:04:05.019Z,35.70
2019-01-24T11:06:33.562Z,34.63
2019-01-24T11:09:02.134Z,33.33
2019-01-24T11:11:30.694Z,34.23
2019-01-24T11:13:59.267Z,34.20
2019-01-24T11:16:27.858Z,35.13
2019-01-24T11:18:56.522Z,34.63
2019-01-24T11:21:25.059Z,34.23
2019-01-24T11:23:53.620Z,35.47
2019-01-24T11:26:22.190Z,33.97
2019-01-24T11:28:50.747Z,35.03
2019-01-24T11:31:19.301Z,35.27
2019-01-24T11:33:47.870Z,32.70
2019-01-24T11:36:16.448Z,34.30
2019-01-24T11:38:45.010Z,34.03
2019-01-24T11:41:13.590Z,35.07
2019-01-24T11:43:42.150Z,34.63
2019-01-24T11:46:10.732Z,34.50
2019-01-24T11:48:39.468Z,34.27
2019-01-24T11:51:08.014Z,33.33
2019-01-24T11:53:36.561Z,34.47
2019-01-24T11:56:06.312Z,33.57
2019-01-24T11:58:34.975Z,36.10
2019-01-24T12:01:03.536Z,35.47
2019-01-24T12:03:32.110Z,34.83
2019-01-24T12:06:00.654Z,35.13
2019-01-24T12:08:29.237Z,34.40
2019-01-24T12:10:57.865Z,35.03
2019-01-24T12:13:26.465Z,36.43
2019-01-24T12:15:55.054Z,35.33
2019-01-24T12:18:25.179Z,34.80
2019-01-24T12:20:53.723Z,33.40
2019-01-24T12:23:22.270Z,34.93
2019-01-24T12:25:50.850Z,35.07
2019-01-24T12:28:19.394Z,33.30
2019-01-24T12:30:47.943Z,34.27
2019-01-24T12:33:16.528Z,36.10
2019-01-24T12:35:45.071Z,34.27
2019-01-24T12:38:13.619Z,36.73
2019-01-24T12:40:42.229Z,34.53
2019-01-24T12:43:10.828Z,34.43
2019-01-24T12:45:39.375Z,35.20
2019-01-24T12:48:07.939Z,35.53
2019-01-24T12:50:36.565Z,36.07
2019-01-24T12:53:05.618Z,35.80
2019-01-24T12:55:34.218Z,37.07
2019-01-24T12:58:02.763Z,37.70
2019-01-24T13:00:32.470Z,34.67
2019-01-24T13:03:01.032Z,35.80
2019-01-24T13:05:29.591Z,35.77
2019-01-24T13:07:58.146Z,36.77
2019-01-24T13:10:45.904Z,35.67
2019-01-24T13:13:14.485Z,36.57
2019-01-24T13:15:43.089Z,36.47
2019-01-24T13:18:11.718Z,36.83
2019-01-24T13:20:40.290Z,36.37
2019-01-24T13:23:08.851Z,38.80
2019-01-24T13:25:37.429Z,38.03
2019-01-24T13:28:06.285Z,39.07
2019-01-24T13:30:34.866Z,37.27
2019-01-24T13:33:03.479Z,38.57
2019-01-24T13:35:32.054Z,38.30
2019-01-24T13:38:00.596Z,37.40
2019-01-24T13:40:29.876Z,38.97
2019-01-24T13:42:58.765Z,39.00
2019-01-24T13:45:28.133Z,38.33
2019-01-24T13:47:56.703Z,38.90
2019-01-24T13:50:25.319Z,38.67
2019-01-24T13:52:53.885Z,38.70
2019-01-24T13:55:22.470Z,40.60
2019-01-24T13:57:51.084Z,37.73
2019-01-24T14:00:23.375Z,39.27
2019-01-24T14:02:53.546Z,42.00
2019-01-24T14:05:22.123Z,39.43
2019-01-24T14:07:50.686Z,40.57
2019-01-24T14:10:19.272Z,41.33
2019-01-24T14:12:47.828Z,40.90
2019-01-24T14:15:16.398Z,39.83
2019-01-24T14:17:44.975Z,39.17
2019-01-24T14:20:14.671Z,41.60
2019-01-24T14:22:43.239Z,40.40
2019-01-24T14:25:13.235Z,38.87
2019-01-24T14:27:41.837Z,40.97
2019-01-24T14:30:12.514Z,38.77
2019-01-24T14:32:41.065Z,40.27
2019-01-24T14:35:10.957Z,41.07
2019-01-24T14:37:39.837Z,40.67
2019-01-24T14:40:09.143Z,41.80
2019-01-24T14:42:37.710Z,42.73
2019-01-24T14:45:07.424Z,40.57
2019-01-24T14:47:35.970Z,41.67
2019-01-24T14:50:05.008Z,40.47
2019-01-24T14:52:33.715Z,40.83
2019-01-24T14:55:02.259Z,40.37
2019-01-24T14:57:30.803Z,41.67
2019-01-24T14:59:59.378Z,40.30
2019-01-24T15:02:27.940Z,40.50
2019-01-24T15:04:56.496Z,40.57
2019-01-24T15:07:25.102Z,41.33
2019-01-24T15:09:53.659Z,41.57
2019-01-24T15:12:22.235Z,40.87
2019-01-24T15:14:50.847Z,39.30
2019-01-24T15:17:19.411Z,40.43
2019-01-24T15:19:47.991Z,41.37
2019-01-24T15:22:16.571Z,42.50
2019-01-24T15:24:45.122Z,40.37
2019-01-24T15:27:13.684Z,40.27
2019-01-24T15:29:42.262Z,40.77
2019-01-24T15:32:10.839Z,41.60
2019-01-24T15:34:39.398Z,44.90
2019-01-24T15:37:07.950Z,42.73
2019-01-24T15:39:36.582Z,43.00
2019-01-24T15:42:05.271Z,42.90
2019-01-24T15:44:33.855Z,45.03
2019-01-24T15:47:02.405Z,43.77
2019-01-24T15:49:30.962Z,43.57
2019-01-24T15:51:59.538Z,43.87
2019-01-24T15:54:28.097Z,42.50
2019-01-24T15:56:56.715Z,44.70
2019-01-24T15:59:25.299Z,44.80
2019-01-24T16:01:53.965Z,45.03
2019-01-24T16:04:22.558Z,44.23
2019-01-24T16:06:51.123Z,44.27
2019-01-24T16:09:19.867Z,45.40
2019-01-24T16:11:48.482Z,44.07
2019-01-24T16:14:17.043Z,44.03
2019-01-24T16:16:45.631Z,43.77
2019-01-24T16:19:14.196Z,47.77
2019-01-24T16:21:42.820Z,45.60
2019-01-24T16:24:11.358Z,46.60
2019-01-24T16:26:39.913Z,43.33
2019-01-24T16:29:08.485Z,46.30
2019-01-24T16:31:37.055Z,46.23
2019-01-24T16:34:06.803Z,44.90
2019-01-24T16:36:35.445Z,47.07
2019-01-24T16:39:06.037Z,43.97
2019-01-24T16:41:34.592Z,45.80
2019-01-24T16:44:03.165Z,45.50
2019-01-24T16:46:31.737Z,46.00
2019-01-24T16:49:00.680Z,46.07
2019-01-24T16:51:29.542Z,45.27
2019-01-24T16:53:58.173Z,47.73
2019-01-24T16:56:26.726Z,45.90
2019-01-24T16:58:55.298Z,46.53
2019-01-24T17:01:23.873Z,45.30
2019-01-24T17:03:53.485Z,45.17
2019-01-24T17:06:22.031Z,46.60
2019-01-24T17:08:50.876Z,47.80
2019-01-24T17:11:19.619Z,48.77
2019-01-24T17:13:48.242Z,47.80
2019-01-24T17:16:16.809Z,47.40
2019-01-24T17:18:45.366Z,48.67
2019-01-24T17:21:13.935Z,48.00
2019-01-24T17:23:42.486Z,49.77
2019-01-24T17:26:11.062Z,46.60
2019-01-24T17:28:39.635Z,49.33
2019-01-24T17:31:08.194Z,48.47
2019-01-24T17:33:36.766Z,49.23
2019-01-24T17:36:05.327Z,47.60
2019-01-24T17:38:33.907Z,49.87
2019-01-24T17:41:02.649Z,49.20
2019-01-24T17:43:31.282Z,48.30
2019-01-24T17:45:59.834Z,50.80
2019-01-24T17:48:28.427Z,50.50
2019-01-24T17:50:56.974Z,49.07
2019-01-24T17:53:25.540Z,49.30
2019-01-24T17:55:54.151Z,51.53
2019-01-24T17:58:22.698Z,52.47
2019-01-24T18:00:54.283Z,48.43
2019-01-24T18:03:22.851Z,51.53
2019-01-24T18:05:51.389Z,53.17
2019-01-24T18:08:19.982Z,52.33
2019-01-24T18:10:48.556Z,51.97
2019-01-24T18:13:17.139Z,51.97
2019-01-24T18:15:45.731Z,53.63
2019-01-24T18:18:14.895Z,50.70
2019-01-24T18:20:43.790Z,51.10
2019-01-24T18:23:12.402Z,52.03
2019-01-24T18:25:40.976Z,51.30
2019-01-24T18:28:10.284Z,52.47
2019-01-24T18:30:38.865Z,50.23
2019-01-24T18:33:07.411Z,51.73
2019-01-24T18:35:35.956Z,50.00
2019-01-24T18:38:04.815Z,48.87
2019-01-24T18:40:33.371Z,50.77
2019-01-24T18:43:01.970Z,51.20
2019-01-24T18:45:34.911Z,50.37
2019-01-24T18:48:03.475Z,49.47
2019-01-24T18:50:32.034Z,50.27
2019-01-24T18:53:00.624Z,50.23
2019-01-24T18:55:29.195Z,50.47
2019-01-24T18:57:57.754Z,51.23
2019-01-24T19:00:37.966Z,50.87
2019-01-24T19:03:07.021Z,50.50
2019-01-24T19:05:35.606Z,51.43
2019-01-24T19:08:04.190Z,49.90
2019-01-24T19:10:32.734Z,52.00
2019-01-24T19:13:01.288Z,52.17
2019-01-24T19:15:29.870Z,52.77
2019-01-24T19:17:58.482Z,50.47
2019-01-24T19:20:27.054Z,49.97
2019-01-24T19:22:55.634Z,51.83
2019-01-24T19:25:24.198Z,49.27
2019-01-24T19:27:52.866Z,53.60
2019-01-24T19:30:22.560Z,52.43
2019-01-24T19:32:51.140Z,51.47
2019-01-24T19:35:19.727Z,50.07
2019-01-24T19:37:48.331Z,52.43
2019-01-24T19:40:17.358Z,52.97
2019-01-24T19:42:45.936Z,49.43
2019-01-24T19:45:15.720Z,51.87
2019-01-24T19:47:44.278Z,52.03
2019-01-24T19:50:13.735Z,51.40
2019-01-24T19:52:42.377Z,50.63
2019-01-24T19:55:11.042Z,48.47
2019-01-24T19:57:39.642Z,49.13
2019-01-24T20:00:10.523Z,49.47
2019-01-24T20:02:39.095Z,49.17
2019-01-24T20:05:08.298Z,48.10
2019-01-24T20:07:36.870Z,47.67
2019-01-24T20:10:05.986Z,48.93
2019-01-24T20:12:34.576Z,48.83
2019-01-24T20:15:03.186Z,46.63
2019-01-24T20:17:31.793Z,51.33
2019-01-24T20:20:00.421Z,47.93
2019-01-24T20:22:29.016Z,47.47
2019-01-24T20:24:57.621Z,49.63
2019-01-24T20:27:26.212Z,47.80
2019-01-24T20:29:54.849Z,46.90
2019-01-24T20:32:23.491Z,46.97
2019-01-24T20:34:52.192Z,48.43
2019-01-24T20:37:21.023Z,49.47
2019-01-24T20:39:49.677Z,47.47
2019-01-24T20:42:18.268Z,48.63
2019-01-24T20:44:46.959Z,49.43
2019-01-24T20:47:15.547Z,49.90
2019-01-24T20:49:44.199Z,49.03
2019-01-24T20:52:12.877Z,48.20
2019-01-24T20:54:41.590Z,48.20
2019-01-24T20:57:10.261Z,48.20
2019-01-24T20:59:38.862Z,49.40
2019-01-24T21:02:07.527Z,46.37
2019-01-24T21:04:36.108Z,49.07
2019-01-24T21:07:04.720Z,48.77
2019-01-24T21:09:33.359Z,50.33
2019-01-24T21:12:01.944Z,49.23
2019-01-24T21:14:30.572Z,46.63
2019-01-24T21:16:59.144Z,48.23
2019-01-24T21:19:27.750Z,47.27
2019-01-24T21:21:56.397Z,48.67
2019-01-24T21:24:24.967Z,48.90
2019-01-24T21:26:53.545Z,49.27
2019-01-24T21:29:22.154Z,45.93
2019-01-24T21:31:50.821Z,48.17
2019-01-24T21:34:19.406Z,45.83
2019-01-24T21:36:48.011Z,46.23
2019-01-24T21:39:22.191Z,47.13
2019-01-24T21:41:47.006Z,47.70
2019-01-24T21:44:15.685Z,47.43
2019-01-24T21:46:44.273Z,48.63
2019-01-24T21:49:12.898Z,48.10
2019-01-24T21:51:41.578Z,49.37
2019-01-24T21:54:10.160Z,48.47
2019-01-24T21:56:38.863Z,46.67
2019-01-24T21:59:07.517Z,48.13
2019-01-24T22:01:36.174Z,45.43
2019-01-24T22:04:04.751Z,49.47
2019-01-24T22:06:33.371Z,45.57
2019-01-24T22:09:01.965Z,46.23
2019-01-24T22:11:30.536Z,46.33
2019-01-24T22:13:59.202Z,45.93
2019-01-24T22:16:27.795Z,47.60
2019-01-24T22:18:56.380Z,44.53
2019-01-24T22:21:24.988Z,46.50
2019-01-24T22:23:53.571Z,45.87
2019-01-24T22:26:22.138Z,44.40
2019-01-24T22:28:50.767Z,45.87
2019-01-24T22:31:19.421Z,47.00
2019-01-24T22:33:48.087Z,48.27
2019-01-24T22:36:16.713Z,45.40
2019-01-24T22:38:45.354Z,49.00
2019-01-24T22:41:13.943Z,45.30
2019-01-24T22:43:42.542Z,46.13
2019-01-24T22:46:11.129Z,45.47
2019-01-24T22:48:39.711Z,44.50
2019-01-24T22:51:08.331Z,46.17
2019-01-24T22:53:36.931Z,46.17
2019-01-24T22:56:05.553Z,45.23
2019-01-24T22:58:34.285Z,45.00
2019-01-24T23:01:20.758Z,45.93
2019-01-24T23:03:50.763Z,44.87
2019-01-24T23:06:19.348Z,44.97
2019-01-24T23:08:47.928Z,46.60
2019-01-24T23:11:16.592Z,46.60
2019-01-24T23:13:45.167Z,46.47
2019-01-24T23:16:13.745Z,45.77
2019-01-24T23:18:42.486Z,48.50
2019-01-24T23:21:11.144Z,45.53
2019-01-24T23:23:39.837Z,44.97
2019-01-24T23:26:08.362Z,48.97
2019-01-24T23:28:36.935Z,48.93
2019-01-24T23:31:05.546Z,48.00
2019-01-24T23:33:34.147Z,48.83
2019-01-24T23:36:02.736Z,48.00
2019-01-24T23:38:31.307Z,49.63
2019-01-24T23:40:59.899Z,46.83
2019-01-24T23:43:28.542Z,44.87
2019-01-24T23:45:57.170Z,49.67
2019-01-24T23:48:25.747Z,49.60
2019-01-24T23:50:54.349Z,46.47
2019-01-24T23:53:23.016Z,46.50
2019-01-24T23:55:51.670Z,47.57
2019-01-24T23:58:20.238Z,47.77
